Terminal Aerodrome Forecast
Issued by NWS Jackson, MS

Home | Current Version | Previous Version | Text Only | Print | Product List | Glossary On
Versions: 1 2 3 4 5 6 7 8 9 10 11 12 13 14 15 16 17 18 19
000
FTUS44 KJAN 171926 AAA
TAFJAN
TAF AMD
KJAN 171926Z 1719/1818 23010KT P6SM VCTS SCT050CB
     FM180100 21005KT P6SM SCT100
     FM181100 21003KT 6SM BR OVC015
     FM181400 27006KT P6SM BKN050=

USA.gov is the U.S. government's official web portal to all federal, state and local government web resources and services.